createdAt,value
2022-11-04T00:02:08.531Z,4.25
2022-11-04T00:04:35.367Z,5.55
2022-11-04T00:07:02.146Z,3.70
2022-11-04T00:09:30.699Z,3.10
2022-11-04T00:12:17.104Z,2.97
2022-11-04T00:14:44.246Z,3.80
2022-11-04T00:17:24.305Z,4.15
2022-11-04T00:20:13.973Z,2.72
2022-11-04T00:23:01.164Z,3.20
2022-11-04T00:25:47.040Z,3.45
2022-11-04T00:28:38.101Z,3.83
2022-11-04T00:31:27.167Z,2.30
2022-11-04T00:33:57.574Z,3.42
2022-11-04T00:36:25.830Z,2.67
2022-11-04T00:38:53.313Z,4.18
2022-11-04T00:41:26.673Z,5.50
2022-11-04T00:44:03.338Z,3.28
2022-11-04T00:46:32.755Z,4.03
2022-11-04T00:48:59.913Z,2.10
2022-11-04T00:51:27.488Z,3.35
2022-11-04T00:53:54.673Z,3.88
2022-11-04T00:56:21.572Z,4.45
2022-11-04T00:58:49.933Z,3.53
2022-11-04T01:01:19.017Z,4.53
2022-11-04T01:03:51.524Z,3.28
2022-11-04T01:06:20.897Z,5.20
2022-11-04T01:08:48.545Z,3.17
2022-11-04T01:11:16.274Z,2.47
2022-11-04T01:13:43.046Z,4.53
2022-11-04T01:16:11.719Z,3.67
2022-11-04T01:18:39.660Z,3.22
2022-11-04T01:21:09.160Z,5.68
2022-11-04T01:23:36.442Z,3.50
2022-11-04T01:26:14.498Z,2.70
2022-11-04T01:28:41.403Z,4.63
2022-11-04T01:31:11.131Z,4.68
2022-11-04T01:33:38.677Z,4.47
2022-11-04T01:36:07.672Z,3.00
2022-11-04T01:38:35.128Z,1.75
2022-11-04T01:41:02.680Z,1.70
2022-11-04T01:43:56.992Z,1.10
2022-11-04T01:46:53.965Z,3.15
2022-11-04T01:49:37.911Z,2.80
2022-11-04T01:52:15.699Z,3.33
2022-11-04T01:54:45.165Z,3.30
2022-11-04T01:57:19.055Z,1.75
2022-11-04T01:59:47.037Z,1.77
2022-11-04T02:02:13.961Z,2.47
2022-11-04T02:04:42.834Z,1.88
2022-11-04T02:07:11.973Z,2.72
2022-11-04T02:09:41.196Z,1.23
2022-11-04T02:12:26.761Z,1.10
2022-11-04T02:14:55.772Z,2.75
2022-11-04T02:17:50.834Z,3.70
2022-11-04T02:20:58.273Z,1.75
2022-11-04T02:24:18.544Z,2.17
2022-11-04T02:27:03.704Z,2.05
2022-11-04T02:30:05.632Z,1.58
2022-11-04T02:32:44.989Z,3.13
2022-11-04T02:35:19.889Z,1.90
2022-11-04T02:38:04.086Z,3.78
2022-11-04T02:41:07.854Z,3.28
2022-11-04T02:43:47.670Z,2.40
2022-11-04T02:46:36.778Z,1.58
2022-11-04T02:49:15.721Z,2.22
2022-11-04T02:52:00.508Z,3.03
2022-11-04T02:54:45.866Z,2.53
2022-11-04T02:57:22.218Z,2.25
2022-11-04T02:59:56.298Z,2.30
2022-11-04T03:02:33.256Z,2.45
2022-11-04T03:05:03.889Z,1.25
2022-11-04T03:07:37.593Z,2.58
2022-11-04T03:10:35.375Z,3.33
2022-11-04T03:13:13.894Z,4.65
2022-11-04T03:15:50.969Z,2.92
2022-11-04T03:18:35.298Z,5.75
2022-11-04T03:21:11.059Z,2.25
2022-11-04T03:23:38.578Z,2.38
2022-11-04T03:26:23.373Z,2.90
2022-11-04T03:29:29.605Z,2.88
2022-11-04T03:32:21.743Z,3.88
2022-11-04T03:34:49.325Z,5.10
2022-11-04T03:37:16.452Z,4.47
2022-11-04T03:39:43.254Z,3.25
2022-11-04T03:42:20.485Z,3.63
2022-11-04T03:44:50.214Z,3.25
2022-11-04T03:47:20.357Z,3.58
2022-11-04T03:49:57.455Z,5.03
2022-11-04T03:52:24.343Z,5.20
2022-11-04T03:54:51.218Z,5.50
2022-11-04T03:57:49.830Z,3.85
2022-11-04T04:00:20.465Z,6.78
2022-11-04T04:03:03.486Z,4.28
2022-11-04T04:05:57.219Z,3.28
2022-11-04T04:08:42.270Z,3.38
2022-11-04T04:11:50.662Z,5.60
2022-11-04T04:14:41.320Z,5.38
2022-11-04T04:17:44.831Z,3.65
2022-11-04T04:20:20.619Z,3.55
2022-11-04T04:22:54.517Z,3.67
2022-11-04T04:25:45.273Z,5.47
2022-11-04T04:28:16.991Z,4.65
2022-11-04T04:30:46.152Z,3.97
2022-11-04T04:33:18.667Z,5.10
2022-11-04T04:35:56.865Z,3.67
2022-11-04T04:38:55.911Z,4.82
2022-11-04T04:41:51.529Z,3.83
2022-11-04T04:44:46.836Z,5.60
2022-11-04T04:47:22.457Z,4.85
2022-11-04T04:49:50.823Z,5.72
2022-11-04T04:52:17.661Z,7.00
2022-11-04T04:54:45.010Z,9.52
2022-11-04T04:57:11.966Z,10.05
2022-11-04T04:59:38.777Z,7.55
2022-11-04T05:02:05.705Z,9.90
2022-11-04T05:04:32.660Z,12.05
2022-11-04T05:06:59.382Z,8.88
2022-11-04T05:09:26.346Z,8.48
2022-11-04T05:11:53.323Z,11.10
2022-11-04T05:14:20.128Z,11.05
2022-11-04T05:16:46.851Z,11.32
2022-11-04T05:19:13.581Z,10.07
2022-11-04T05:21:40.301Z,11.57
2022-11-04T05:24:07.301Z,11.68
2022-11-04T05:26:34.041Z,10.75
2022-11-04T05:29:00.827Z,10.88
2022-11-04T05:31:28.439Z,11.68
2022-11-04T05:33:55.191Z,13.98
2022-11-04T05:36:21.934Z,14.30
2022-11-04T05:38:55.523Z,14.32
2022-11-04T05:41:28.528Z,12.43
2022-11-04T05:43:58.248Z,12.15
2022-11-04T05:46:25.730Z,12.38
2022-11-04T05:48:52.974Z,11.82
2022-11-04T05:51:24.044Z,13.90
2022-11-04T05:53:51.279Z,12.70
2022-11-04T05:56:18.738Z,13.07
2022-11-04T05:58:45.649Z,14.18
2022-11-04T06:01:27.492Z,10.50
2022-11-04T06:03:55.459Z,11.02
2022-11-04T06:06:24.619Z,10.75
2022-11-04T06:08:52.648Z,13.02
2022-11-04T06:11:21.155Z,14.43
2022-11-04T06:13:48.248Z,14.32
2022-11-04T06:16:15.389Z,12.60
2022-11-04T06:18:42.257Z,11.07
2022-11-04T06:21:21.126Z,13.35
2022-11-04T06:23:48.713Z,13.13
2022-11-04T06:26:16.932Z,12.95
2022-11-04T06:28:45.149Z,11.80
2022-11-04T06:31:14.227Z,13.23
2022-11-04T06:33:41.222Z,11.10
2022-11-04T06:36:12.241Z,12.68
2022-11-04T06:38:39.275Z,12.45
2022-11-04T06:41:11.824Z,12.30
2022-11-04T06:43:38.610Z,14.63
2022-11-04T06:46:05.918Z,13.68
2022-11-04T06:48:32.907Z,12.32
2022-11-04T06:51:01.260Z,10.63
2022-11-04T06:53:29.291Z,11.15
2022-11-04T06:56:03.987Z,13.23
2022-11-04T06:58:30.782Z,12.85
2022-11-04T07:00:57.764Z,12.88
2022-11-04T07:03:24.511Z,13.05
2022-11-04T07:05:51.298Z,14.27
2022-11-04T07:08:18.670Z,16.83
2022-11-04T07:10:45.413Z,14.15
2022-11-04T07:13:12.214Z,14.13
2022-11-04T07:15:40.134Z,12.93
2022-11-04T07:18:07.406Z,11.90
2022-11-04T07:20:36.697Z,14.65
2022-11-04T07:23:03.629Z,10.95
2022-11-04T07:25:30.661Z,13.57
2022-11-04T07:28:01.099Z,11.93
2022-11-04T07:30:29.573Z,16.50
2022-11-04T07:32:56.388Z,14.10
2022-11-04T07:35:23.119Z,12.90
2022-11-04T07:37:49.872Z,13.30
2022-11-04T07:40:17.094Z,12.35
2022-11-04T07:42:43.834Z,9.60
2022-11-04T07:45:16.982Z,14.60
2022-11-04T07:47:43.799Z,10.20
2022-11-04T07:50:11.645Z,10.82
2022-11-04T07:52:38.820Z,12.80
2022-11-04T07:55:06.148Z,11.45
2022-11-04T07:57:32.970Z,11.25
2022-11-04T07:59:59.689Z,13.07
2022-11-04T08:02:31.083Z,10.77
2022-11-04T08:05:00.837Z,10.23
2022-11-04T08:07:27.622Z,9.18
2022-11-04T08:09:54.355Z,9.43
2022-11-04T08:12:23.689Z,11.43
2022-11-04T08:14:51.572Z,8.18
2022-11-04T08:17:18.389Z,10.25
2022-11-04T08:19:45.194Z,11.68
2022-11-04T08:22:12.093Z,12.70
2022-11-04T08:24:39.397Z,10.82
2022-11-04T08:27:07.623Z,13.40
2022-11-04T08:29:35.268Z,13.55
2022-11-04T08:32:02.129Z,9.82
2022-11-04T08:34:29.054Z,10.07
2022-11-04T08:36:57.557Z,10.93
2022-11-04T08:39:24.882Z,11.45
2022-11-04T08:41:53.447Z,12.75
2022-11-04T08:44:22.171Z,11.70
2022-11-04T08:46:49.006Z,14.48
2022-11-04T08:49:20.623Z,9.68
2022-11-04T08:51:56.065Z,12.10
2022-11-04T08:54:24.935Z,10.70
2022-11-04T08:56:52.259Z,14.90
2022-11-04T08:59:19.175Z,14.73
2022-11-04T09:01:46.083Z,14.07
2022-11-04T09:04:14.008Z,9.98
2022-11-04T09:06:45.938Z,12.82
2022-11-04T09:09:16.833Z,13.43
2022-11-04T09:11:45.657Z,14.23
2022-11-04T09:14:13.539Z,11.98
2022-11-04T09:16:42.524Z,14.70
2022-11-04T09:19:09.906Z,13.65
2022-11-04T09:21:37.118Z,15.63
2022-11-04T09:24:05.054Z,16.85
2022-11-04T09:26:31.868Z,11.48
2022-11-04T09:28:59.722Z,14.68
2022-11-04T09:31:29.869Z,16.15
2022-11-04T09:33:57.364Z,12.90
2022-11-04T09:36:24.761Z,15.93
2022-11-04T09:38:53.357Z,12.35
2022-11-04T09:41:51.913Z,14.55
2022-11-04T09:45:14.972Z,15.23
2022-11-04T09:47:36.291Z,13.73
2022-11-04T09:50:08.226Z,15.75
2022-11-04T09:52:44.329Z,14.95
2022-11-04T09:55:29.279Z,12.00
2022-11-04T09:58:01.734Z,12.90
2022-11-04T10:00:35.279Z,14.02
2022-11-04T10:03:37.935Z,15.10
2022-11-04T10:06:31.997Z,14.35
2022-11-04T10:09:29.938Z,13.77
2022-11-04T10:12:36.387Z,11.73
2022-11-04T10:15:39.882Z,14.05
2022-11-04T10:18:30.870Z,11.48
2022-11-04T10:21:09.167Z,17.65
2022-11-04T10:23:51.457Z,12.07
2022-11-04T10:26:41.315Z,14.07
2022-11-04T10:29:29.022Z,12.93
2022-11-04T10:32:01.530Z,10.80
2022-11-04T10:34:43.605Z,11.15
2022-11-04T10:37:12.793Z,12.88
2022-11-04T10:39:47.942Z,15.57
2022-11-04T10:42:22.172Z,13.75
2022-11-04T10:44:52.282Z,11.15
2022-11-04T10:47:47.315Z,12.57
2022-11-04T10:50:30.232Z,13.45
2022-11-04T10:53:20.827Z,12.65
2022-11-04T10:55:59.939Z,12.38
2022-11-04T10:58:32.370Z,9.40
2022-11-04T11:00:59.748Z,11.20
2022-11-04T11:03:32.853Z,12.00
2022-11-04T11:06:32.227Z,11.27
2022-11-04T11:09:14.287Z,10.50
2022-11-04T11:11:48.719Z,9.75
2022-11-04T11:14:28.857Z,9.88
2022-11-04T11:17:20.800Z,10.05
2022-11-04T11:20:18.491Z,7.65
2022-11-04T11:22:48.714Z,6.53
2022-11-04T11:25:26.689Z,10.25
2022-11-04T11:28:01.010Z,12.50
2022-11-04T11:30:33.843Z,10.05
2022-11-04T11:33:33.293Z,8.95
2022-11-04T11:36:14.427Z,10.00
2022-11-04T11:39:13.741Z,11.68
2022-11-04T11:42:06.391Z,17.60
2022-11-04T11:44:58.054Z,10.93
2022-11-04T11:47:30.179Z,11.00
2022-11-04T11:50:20.876Z,10.25
2022-11-04T11:52:54.949Z,11.32
2022-11-04T11:55:36.205Z,10.90
2022-11-04T12:01:51.362Z,11.05
2022-11-04T12:10:44.569Z,8.50
2022-11-04T12:13:40.568Z,8.05
2022-11-04T12:16:40.162Z,8.27
2022-11-04T12:19:43.133Z,8.70
2022-11-04T12:23:02.606Z,8.02
2022-11-04T12:26:15.644Z,8.65
2022-11-04T12:29:07.264Z,8.10
2022-11-04T12:32:16.072Z,8.00
2022-11-04T12:35:18.299Z,9.73
2022-11-04T12:38:33.865Z,11.82
2022-11-04T12:44:34.631Z,8.48
2022-11-04T12:47:40.672Z,6.53
2022-11-04T12:50:16.337Z,9.35
2022-11-04T12:53:20.068Z,12.52
2022-11-04T12:56:14.655Z,10.30
2022-11-04T12:59:31.449Z,10.77
2022-11-04T13:02:13.450Z,9.07
2022-11-04T13:04:52.070Z,10.38
2022-11-04T13:07:39.389Z,11.05
2022-11-04T13:10:20.525Z,4.82
2022-11-04T13:12:54.002Z,3.75
2022-11-04T13:15:28.486Z,4.88
2022-11-04T13:18:03.707Z,3.85
2022-11-04T13:20:45.429Z,2.42
2022-11-04T13:23:45.917Z,3.50
2022-11-04T13:26:17.852Z,1.27
2022-11-04T13:28:56.139Z,2.60
2022-11-04T13:31:40.131Z,3.25
2022-11-04T13:34:32.904Z,3.08
2022-11-04T13:37:28.154Z,5.47
2022-11-04T13:40:19.736Z,3.28
2022-11-04T13:42:55.255Z,3.40
2022-11-04T13:45:22.387Z,1.65
2022-11-04T13:47:57.920Z,2.17
2022-11-04T13:50:38.429Z,2.22
2022-11-04T13:53:10.719Z,1.30
2022-11-04T13:55:50.447Z,1.85
2022-11-04T13:58:27.699Z,1.27
2022-11-04T14:01:25.813Z,2.72
2022-11-04T14:04:01.103Z,2.85
2022-11-04T14:06:55.054Z,1.65
2022-11-04T14:09:49.043Z,2.60
2022-11-04T14:12:18.713Z,1.30
2022-11-04T14:14:48.647Z,1.60
2022-11-04T14:17:33.838Z,3.10
2022-11-04T14:20:11.867Z,3.40
2022-11-04T14:22:44.326Z,1.67
2022-11-04T14:25:32.512Z,5.05
2022-11-04T14:28:11.077Z,2.45
2022-11-04T14:30:48.120Z,5.85
2022-11-04T14:33:42.180Z,5.30
2022-11-04T14:36:20.860Z,4.82
2022-11-04T14:39:11.584Z,3.67
2022-11-04T14:41:41.333Z,2.58
2022-11-04T14:44:12.691Z,2.90
2022-11-04T14:46:47.463Z,3.40
2022-11-04T14:49:39.428Z,1.85
2022-11-04T14:52:30.439Z,2.03
2022-11-04T14:55:26.964Z,3.55
2022-11-04T14:57:57.781Z,2.92
2022-11-04T15:00:40.248Z,6.55
2022-11-04T15:03:12.535Z,5.60
2022-11-04T15:05:53.359Z,4.15
2022-11-04T15:08:41.317Z,3.28
2022-11-04T15:11:16.533Z,4.10
2022-11-04T15:13:47.891Z,4.45
2022-11-04T15:16:24.277Z,3.53
2022-11-04T15:18:54.728Z,3.30
2022-11-04T15:21:22.241Z,4.28
2022-11-04T15:23:52.720Z,1.90
2022-11-04T15:26:29.091Z,2.65
2022-11-04T15:29:00.665Z,1.80
2022-11-04T15:31:33.576Z,2.78
2022-11-04T15:34:06.502Z,3.45
2022-11-04T15:36:42.509Z,2.90
2022-11-04T15:39:22.059Z,1.50
2022-11-04T15:42:12.801Z,3.72
2022-11-04T15:44:48.630Z,1.95
2022-11-04T15:47:18.443Z,4.22
2022-11-04T15:49:47.788Z,6.40
2022-11-04T15:52:49.988Z,4.35
2022-11-04T15:55:25.189Z,4.18
2022-11-04T15:57:53.577Z,3.30
2022-11-04T16:00:28.412Z,4.25
2022-11-04T16:03:00.361Z,4.55
2022-11-04T16:05:33.110Z,3.40
2022-11-04T16:08:23.999Z,5.43
2022-11-04T16:11:07.175Z,4.90
2022-11-04T16:13:34.384Z,3.97
2022-11-04T16:16:08.882Z,3.63
2022-11-04T16:19:00.230Z,3.55
2022-11-04T16:21:36.049Z,3.67
2022-11-04T16:24:23.434Z,4.65
2022-11-04T16:26:50.810Z,5.00
2022-11-04T16:29:26.622Z,8.35
2022-11-04T16:32:18.322Z,7.82
2022-11-04T16:34:49.842Z,9.82
2022-11-04T16:37:16.641Z,7.30
2022-11-04T16:39:45.160Z,8.23
2022-11-04T16:42:16.447Z,7.32
2022-11-04T16:45:00.003Z,5.78
2022-11-04T16:47:29.826Z,7.18
2022-11-04T16:50:01.761Z,6.65
2022-11-04T16:52:28.995Z,6.75
2022-11-04T16:54:56.481Z,6.10
2022-11-04T16:57:25.291Z,4.68
2022-11-04T16:59:52.294Z,5.95
2022-11-04T17:02:30.763Z,7.20
2022-11-04T17:04:58.355Z,7.05
2022-11-04T17:07:40.672Z,6.15
2022-11-04T17:10:20.276Z,6.15
2022-11-04T17:12:47.348Z,7.38
2022-11-04T17:15:16.285Z,6.43
2022-11-04T17:17:43.843Z,8.75
2022-11-04T17:20:15.557Z,6.43
2022-11-04T17:22:43.005Z,3.47
2022-11-04T17:25:21.652Z,6.82
2022-11-04T17:27:49.155Z,5.38
2022-11-04T17:30:17.871Z,5.90
2022-11-04T17:32:46.519Z,7.75
2022-11-04T17:35:15.011Z,10.43
2022-11-04T17:37:42.505Z,12.40
2022-11-04T17:40:16.115Z,15.82
2022-11-04T17:43:06.961Z,15.45
2022-11-04T17:45:37.006Z,12.02
2022-11-04T17:48:05.341Z,11.13
2022-11-04T17:50:32.680Z,11.10
2022-11-04T17:52:59.593Z,8.35
2022-11-04T17:55:27.813Z,8.90
2022-11-04T17:57:55.350Z,8.60
2022-11-04T18:00:25.737Z,6.95
2022-11-04T18:02:52.703Z,9.35
2022-11-04T18:05:20.229Z,7.45
2022-11-04T18:07:47.014Z,5.93
2022-11-04T18:10:13.898Z,5.50
2022-11-04T18:12:41.531Z,5.35
2022-11-04T18:15:12.906Z,8.13
2022-11-04T18:17:42.547Z,8.25
2022-11-04T18:20:15.144Z,6.13
2022-11-04T18:22:42.984Z,5.70
2022-11-04T18:25:11.416Z,6.57
2022-11-04T18:27:38.416Z,4.97
2022-11-04T18:30:06.279Z,8.10
2022-11-04T18:32:33.547Z,7.45
2022-11-04T18:35:00.428Z,9.00
2022-11-04T18:37:29.126Z,10.13
2022-11-04T18:39:55.881Z,8.48
2022-11-04T18:42:23.134Z,5.97
2022-11-04T18:44:50.098Z,9.27
2022-11-04T18:47:17.911Z,7.53
2022-11-04T18:49:46.119Z,8.65
2022-11-04T18:52:12.873Z,9.95
2022-11-04T18:54:39.790Z,9.43
2022-11-04T18:57:06.713Z,8.43
2022-11-04T18:59:33.474Z,9.02
2022-11-04T19:02:00.390Z,7.55
2022-11-04T19:04:27.716Z,10.32
2022-11-04T19:06:54.723Z,7.05
2022-11-04T19:12:28.733Z,7.22
2022-11-04T19:14:55.690Z,16.90
2022-11-04T19:17:23.041Z,13.18
2022-11-04T19:19:51.312Z,8.75
2022-11-04T19:22:18.082Z,8.65
2022-11-04T19:24:45.951Z,11.23
2022-11-04T19:27:13.062Z,10.65
2022-11-04T19:29:39.810Z,10.68
2022-11-04T19:32:12.786Z,11.15
2022-11-04T19:34:41.266Z,7.93
2022-11-04T19:37:08.023Z,11.35
2022-11-04T19:39:34.897Z,7.70
2022-11-04T19:42:20.654Z,10.70
2022-11-04T19:44:47.426Z,8.48
2022-11-04T19:47:14.204Z,8.85
2022-11-04T19:49:41.395Z,11.65
2022-11-04T19:52:08.842Z,11.52
2022-11-04T19:54:35.744Z,13.52
2022-11-04T19:57:02.497Z,18.00
2022-11-04T19:59:29.272Z,16.10
2022-11-04T20:01:56.308Z,25.85
2022-11-04T20:04:23.170Z,25.65
2022-11-04T20:06:49.896Z,18.35
2022-11-04T20:09:16.669Z,11.30
2022-11-04T20:12:01.913Z,10.05
2022-11-04T20:14:29.238Z,9.38
2022-11-04T20:16:56.069Z,9.23
2022-11-04T20:19:23.588Z,11.63
2022-11-04T20:21:51.091Z,8.95
2022-11-04T20:24:18.330Z,10.13
2022-11-04T20:26:46.832Z,9.25
2022-11-04T20:29:15.893Z,10.32
2022-11-04T20:31:43.639Z,8.40
2022-11-04T20:34:12.490Z,8.75
2022-11-04T20:36:40.576Z,7.63
2022-11-04T20:39:17.853Z,9.43
2022-11-04T20:41:46.206Z,9.13
2022-11-04T20:44:15.271Z,13.70
2022-11-04T20:46:43.538Z,29.20
2022-11-04T20:49:11.482Z,20.65
2022-11-04T20:51:48.702Z,19.27
2022-11-04T20:54:17.854Z,20.60
2022-11-04T20:56:45.318Z,16.65
2022-11-04T20:59:14.110Z,14.43
2022-11-04T21:01:44.251Z,14.30
2022-11-04T21:04:20.553Z,14.27
2022-11-04T21:06:51.833Z,14.95
2022-11-04T21:09:21.122Z,9.82
2022-11-04T21:11:48.869Z,14.98
2022-11-04T21:14:19.192Z,14.57
2022-11-04T21:16:46.881Z,13.82
2022-11-04T21:19:14.468Z,9.65
2022-11-04T21:21:43.292Z,10.13
2022-11-04T21:24:13.005Z,13.20
2022-11-04T21:26:40.345Z,13.07
2022-11-04T21:29:10.879Z,12.98
2022-11-04T21:31:37.966Z,14.48
2022-11-04T21:34:05.267Z,10.55
2022-11-04T21:36:33.147Z,12.30
2022-11-04T21:39:00.540Z,13.77
2022-11-04T21:41:30.494Z,16.30
2022-11-04T21:44:00.494Z,11.32
2022-11-04T21:46:31.159Z,14.82
2022-11-04T21:48:58.735Z,10.40
2022-11-04T21:51:29.577Z,10.30
2022-11-04T21:53:57.603Z,9.90
2022-11-04T21:56:28.925Z,9.98
2022-11-04T21:58:56.612Z,9.75
2022-11-04T22:01:29.195Z,9.85
2022-11-04T22:03:59.460Z,9.18
2022-11-04T22:06:33.482Z,6.45
2022-11-04T22:09:00.727Z,8.15
2022-11-04T22:11:30.752Z,8.73
2022-11-04T22:14:00.928Z,6.80
2022-11-04T22:16:31.939Z,7.38
2022-11-04T22:19:06.274Z,6.72
2022-11-04T22:21:33.749Z,7.63
2022-11-04T22:24:01.745Z,9.27
2022-11-04T22:26:32.503Z,7.50
2022-11-04T22:29:00.169Z,5.20
2022-11-04T22:31:31.330Z,4.40
2022-11-04T22:33:59.695Z,4.85
2022-11-04T22:36:27.643Z,3.65
2022-11-04T22:38:54.553Z,5.28
2022-11-04T22:41:26.214Z,4.15
2022-11-04T22:43:53.251Z,4.07
2022-11-04T22:46:27.396Z,5.88
2022-11-04T22:48:54.458Z,5.03
2022-11-04T22:51:21.306Z,6.10
2022-11-04T22:53:57.756Z,4.07
2022-11-04T22:56:25.848Z,4.65
2022-11-04T22:58:53.974Z,3.53
2022-11-04T23:01:21.154Z,5.90
2022-11-04T23:03:50.821Z,4.47
2022-11-04T23:06:17.654Z,3.65
2022-11-04T23:08:45.006Z,4.88
2022-11-04T23:11:39.557Z,5.30
2022-11-04T23:14:25.546Z,5.43
2022-11-04T23:17:11.064Z,8.13
2022-11-04T23:19:38.975Z,5.28
2022-11-04T23:22:25.634Z,6.22
2022-11-04T23:25:05.862Z,5.85
2022-11-04T23:27:53.033Z,8.13
2022-11-04T23:30:26.357Z,6.07
2022-11-04T23:33:00.254Z,4.10
2022-11-04T23:35:49.862Z,3.67
2022-11-04T23:38:17.510Z,7.57
2022-11-04T23:41:08.014Z,4.55
2022-11-04T23:43:35.978Z,3.70
2022-11-04T23:46:21.458Z,5.95
2022-11-04T23:49:26.729Z,6.82
2022-11-04T23:52:11.787Z,4.82
2022-11-04T23:54:57.031Z,4.45
2022-11-04T23:57:42.527Z,4.35
